createdAt,value
2022-10-10T00:01:08.589Z,8.20
2022-10-10T00:03:35.133Z,8.20
2022-10-10T00:06:01.707Z,8.20
2022-10-10T00:08:28.281Z,8.10
2022-10-10T00:10:54.869Z,8.10
2022-10-10T00:13:21.637Z,8.00
2022-10-10T00:15:49.063Z,8.00
2022-10-10T00:18:16.468Z,7.90
2022-10-10T00:20:45.493Z,7.90
2022-10-10T00:23:12.005Z,7.90
2022-10-10T00:25:40.697Z,7.90
2022-10-10T00:28:07.285Z,7.90
2022-10-10T00:30:36.101Z,7.90
2022-10-10T00:33:02.741Z,7.90
2022-10-10T00:35:29.250Z,7.90
2022-10-10T00:37:55.769Z,7.90
2022-10-10T00:40:22.872Z,7.80
2022-10-10T00:42:52.038Z,7.80
2022-10-10T00:45:24.737Z,7.80
2022-10-10T00:47:53.217Z,7.90
2022-10-10T00:50:20.389Z,7.90
2022-10-10T00:52:47.065Z,7.80
2022-10-10T00:55:14.481Z,7.80
2022-10-10T00:57:41.272Z,7.80
2022-10-10T01:00:08.214Z,7.70
2022-10-10T01:02:34.793Z,7.70
2022-10-10T01:05:01.341Z,7.70
2022-10-10T01:07:29.344Z,7.60
2022-10-10T01:09:57.531Z,7.50
2022-10-10T01:12:30.685Z,7.50
2022-10-10T01:15:20.703Z,7.50
2022-10-10T01:17:50.308Z,7.50
2022-10-10T01:20:16.780Z,7.40
2022-10-10T01:23:07.764Z,7.40
2022-10-10T01:25:37.147Z,7.40
2022-10-10T01:28:21.564Z,7.40
2022-10-10T01:30:48.650Z,7.30
2022-10-10T01:33:21.219Z,7.30
2022-10-10T01:35:50.877Z,7.20
2022-10-10T01:38:23.572Z,7.30
2022-10-10T01:40:55.925Z,7.20
2022-10-10T01:43:23.751Z,7.10
2022-10-10T01:45:51.599Z,7.10
2022-10-10T01:48:20.463Z,7.10
2022-10-10T01:51:10.457Z,7.10
2022-10-10T01:53:50.568Z,7.00
2022-10-10T01:56:25.961Z,7.00
2022-10-10T01:59:04.871Z,7.00
2022-10-10T02:01:55.749Z,7.00
2022-10-10T02:04:38.635Z,7.00
2022-10-10T02:07:08.477Z,7.00
2022-10-10T02:09:37.058Z,6.90
2022-10-10T02:12:04.476Z,6.90
2022-10-10T02:14:33.652Z,6.90
2022-10-10T02:17:01.293Z,6.90
2022-10-10T02:19:30.216Z,6.90
2022-10-10T02:21:56.778Z,6.80
2022-10-10T02:24:24.651Z,6.80
2022-10-10T02:26:56.607Z,6.80
2022-10-10T02:29:26.269Z,6.80
2022-10-10T02:32:13.440Z,6.80
2022-10-10T02:34:44.875Z,6.80
2022-10-10T02:37:12.633Z,6.80
2022-10-10T02:39:42.484Z,6.70
2022-10-10T02:42:13.348Z,6.70
2022-10-10T02:44:40.123Z,6.70
2022-10-10T02:47:06.689Z,6.70
2022-10-10T02:49:34.029Z,6.70
2022-10-10T02:52:01.347Z,6.70
2022-10-10T02:54:30.253Z,6.60
2022-10-10T02:56:59.050Z,6.60
2022-10-10T02:59:25.614Z,6.70
2022-10-10T03:01:54.595Z,6.70
2022-10-10T03:04:21.127Z,6.70
2022-10-10T03:06:47.668Z,6.60
2022-10-10T03:09:14.205Z,6.60
2022-10-10T03:11:40.738Z,6.50
2022-10-10T03:14:07.293Z,6.50
2022-10-10T03:16:33.903Z,6.60
2022-10-10T03:19:00.537Z,6.50
2022-10-10T03:21:27.056Z,6.50
2022-10-10T03:23:53.683Z,6.50
2022-10-10T03:26:20.450Z,6.60
2022-10-10T03:28:49.524Z,6.50
2022-10-10T03:31:16.131Z,6.50
2022-10-10T03:33:45.111Z,6.40
2022-10-10T03:36:14.079Z,6.40
2022-10-10T03:38:40.725Z,6.40
2022-10-10T03:41:10.006Z,6.40
2022-10-10T03:43:38.998Z,6.30
2022-10-10T03:46:10.434Z,6.30
2022-10-10T03:48:41.446Z,6.30
2022-10-10T03:51:08.023Z,6.30
2022-10-10T03:53:34.597Z,6.30
2022-10-10T03:56:03.317Z,6.30
2022-10-10T03:58:29.898Z,6.30
2022-10-10T04:00:57.261Z,6.20
2022-10-10T04:03:23.980Z,6.20
2022-10-10T04:05:50.568Z,6.20
2022-10-10T04:08:17.208Z,6.20
2022-10-10T04:10:45.899Z,6.30
2022-10-10T04:13:12.445Z,6.20
2022-10-10T04:15:41.458Z,6.20
2022-10-10T04:18:12.777Z,6.20
2022-10-10T04:20:39.273Z,6.20
2022-10-10T04:23:05.801Z,6.20
2022-10-10T04:25:32.507Z,6.20
2022-10-10T04:28:01.180Z,6.20
2022-10-10T04:30:31.820Z,6.20
2022-10-10T04:32:58.361Z,6.10
2022-10-10T04:35:25.350Z,6.10
2022-10-10T04:37:52.324Z,6.20
2022-10-10T04:40:25.648Z,6.20
2022-10-10T04:42:53.311Z,6.10
2022-10-10T04:45:20.120Z,6.00
2022-10-10T04:47:46.675Z,6.00
2022-10-10T04:50:15.705Z,6.00
2022-10-10T04:52:42.215Z,6.00
2022-10-10T04:55:11.043Z,6.00
2022-10-10T04:57:37.556Z,6.00
2022-10-10T05:00:04.707Z,6.00
2022-10-10T05:02:31.513Z,5.90
2022-10-10T05:04:58.063Z,5.90
2022-10-10T05:07:24.590Z,5.90
2022-10-10T05:09:53.665Z,5.90
2022-10-10T05:12:20.345Z,5.90
2022-10-10T05:14:48.273Z,5.80
2022-10-10T05:17:17.809Z,5.80
2022-10-10T05:19:44.366Z,5.80
2022-10-10T05:22:13.287Z,5.80
2022-10-10T05:24:40.325Z,5.80
2022-10-10T05:27:06.893Z,5.80
2022-10-10T05:29:35.630Z,5.70
2022-10-10T05:32:04.418Z,5.70
2022-10-10T05:34:34.297Z,5.70
2022-10-10T05:37:00.852Z,5.70
2022-10-10T05:39:27.425Z,5.70
2022-10-10T05:41:56.646Z,5.60
2022-10-10T05:44:23.295Z,5.60
2022-10-10T05:46:49.916Z,5.70
2022-10-10T05:49:16.471Z,5.70
2022-10-10T05:51:42.996Z,5.70
2022-10-10T05:54:09.975Z,5.70
2022-10-10T05:56:36.512Z,5.70
2022-10-10T05:59:03.214Z,5.70
2022-10-10T06:01:29.938Z,5.60
2022-10-10T06:03:58.641Z,5.60
2022-10-10T06:06:25.744Z,5.70
2022-10-10T06:08:52.420Z,5.70
2022-10-10T06:11:23.395Z,5.70
2022-10-10T06:13:54.131Z,5.70
2022-10-10T06:16:21.558Z,5.80
2022-10-10T06:18:49.303Z,5.70
2022-10-10T06:21:16.488Z,5.70
2022-10-10T06:23:43.211Z,5.80
2022-10-10T06:26:10.258Z,5.70
2022-10-10T06:28:39.808Z,5.70
2022-10-10T06:31:08.201Z,5.70
2022-10-10T06:33:37.054Z,5.70
2022-10-10T06:36:07.489Z,5.70
2022-10-10T06:38:40.370Z,5.60
2022-10-10T06:41:07.250Z,5.70
2022-10-10T06:43:34.446Z,5.70
2022-10-10T06:46:01.556Z,5.80
2022-10-10T06:48:30.120Z,5.80
2022-10-10T06:51:01.301Z,5.70
2022-10-10T06:53:27.997Z,5.70
2022-10-10T06:55:57.164Z,5.80
2022-10-10T06:58:24.203Z,5.90
2022-10-10T07:00:54.675Z,5.90
2022-10-10T07:03:21.433Z,5.90
2022-10-10T07:05:58.066Z,5.90
2022-10-10T07:08:25.394Z,5.90
2022-10-10T07:10:51.960Z,5.90
2022-10-10T07:13:21.382Z,5.90
2022-10-10T07:15:48.109Z,6.00
2022-10-10T07:18:14.686Z,6.10
2022-10-10T07:20:41.755Z,6.10
2022-10-10T07:23:08.487Z,6.20
2022-10-10T07:25:37.304Z,6.20
2022-10-10T07:28:03.879Z,6.30
2022-10-10T07:30:30.412Z,6.40
2022-10-10T07:32:56.962Z,6.40
2022-10-10T07:35:26.185Z,6.50
2022-10-10T07:37:56.056Z,6.60
2022-10-10T07:40:23.041Z,6.70
2022-10-10T07:42:50.131Z,6.80
2022-10-10T07:45:17.088Z,6.80
2022-10-10T07:47:44.018Z,7.00
2022-10-10T07:50:11.532Z,7.10
2022-10-10T07:52:41.007Z,7.20
2022-10-10T07:55:07.874Z,7.30
2022-10-10T07:57:35.192Z,7.40
2022-10-10T08:00:06.033Z,7.40
2022-10-10T08:02:32.616Z,7.50
2022-10-10T08:04:59.175Z,7.60
2022-10-10T08:07:25.814Z,7.60
2022-10-10T08:09:52.359Z,7.80
2022-10-10T08:12:18.934Z,8.00
2022-10-10T08:14:47.743Z,8.10
2022-10-10T08:17:14.338Z,8.10
2022-10-10T08:19:43.143Z,8.30
2022-10-10T08:22:09.810Z,8.40
2022-10-10T08:24:36.360Z,8.60
2022-10-10T08:27:05.113Z,8.50
2022-10-10T08:29:32.721Z,8.60
2022-10-10T08:31:59.279Z,8.60
2022-10-10T08:34:25.795Z,8.70
2022-10-10T08:36:52.305Z,8.80
2022-10-10T08:39:21.008Z,8.90
2022-10-10T08:41:47.518Z,9.10
2022-10-10T08:44:14.034Z,9.20
2022-10-10T08:46:50.329Z,9.40
2022-10-10T08:49:19.867Z,9.60
2022-10-10T08:51:48.186Z,9.80
2022-10-10T08:54:16.279Z,9.90
2022-10-10T08:56:43.460Z,10.00
2022-10-10T08:59:16.275Z,10.00
2022-10-10T09:02:17.615Z,10.10
2022-10-10T09:04:32.449Z,10.20
2022-10-10T09:07:22.404Z,10.30
2022-10-10T09:09:55.136Z,10.30
2022-10-10T09:12:39.135Z,10.40
2022-10-10T09:15:13.887Z,10.30
2022-10-10T09:17:54.040Z,10.40
2022-10-10T09:20:22.786Z,10.60
2022-10-10T09:22:55.550Z,10.60
2022-10-10T09:25:33.269Z,10.60
2022-10-10T09:28:07.863Z,10.70
2022-10-10T09:30:37.127Z,10.80
2022-10-10T09:33:18.279Z,10.80
2022-10-10T09:35:46.336Z,10.80
2022-10-10T09:38:23.439Z,10.90
2022-10-10T09:40:53.767Z,11.00
2022-10-10T09:43:21.149Z,11.10
2022-10-10T09:45:56.778Z,11.10
2022-10-10T09:48:27.322Z,11.30
2022-10-10T09:50:53.894Z,11.40
2022-10-10T09:53:20.443Z,11.60
2022-10-10T09:55:47.853Z,11.70
2022-10-10T09:58:32.877Z,11.70
2022-10-10T10:01:18.283Z,11.70
2022-10-10T10:03:52.493Z,11.90
2022-10-10T10:06:23.490Z,12.00
2022-10-10T10:08:52.458Z,12.10
2022-10-10T10:11:27.356Z,12.30
2022-10-10T10:13:56.920Z,12.40
2022-10-10T10:16:31.329Z,12.50
2022-10-10T10:18:57.934Z,12.50
2022-10-10T10:21:24.819Z,12.60
2022-10-10T10:23:51.399Z,12.70
2022-10-10T10:26:20.731Z,12.70
2022-10-10T10:28:48.316Z,12.70
2022-10-10T10:31:35.375Z,12.80
2022-10-10T10:34:20.804Z,12.90
2022-10-10T10:36:50.460Z,13.10
2022-10-10T10:39:35.568Z,13.20
2022-10-10T10:42:14.193Z,13.30
2022-10-10T10:44:40.784Z,13.30
2022-10-10T10:47:07.298Z,13.40
2022-10-10T10:49:33.906Z,13.50
2022-10-10T10:52:00.411Z,13.50
2022-10-10T10:54:38.282Z,13.60
2022-10-10T10:57:31.767Z,13.70
2022-10-10T11:00:33.730Z,13.80
2022-10-10T11:03:05.934Z,13.90
2022-10-10T11:06:04.739Z,14.00
2022-10-10T11:08:37.337Z,14.10
2022-10-10T11:11:06.700Z,14.30
2022-10-10T11:13:52.512Z,14.30
2022-10-10T11:16:46.988Z,14.40
2022-10-10T11:19:11.475Z,14.50
2022-10-10T11:21:40.668Z,14.60
2022-10-10T11:24:11.387Z,14.70
2022-10-10T11:26:39.957Z,14.70
2022-10-10T11:29:13.449Z,14.80
2022-10-10T11:31:41.367Z,14.90
2022-10-10T11:34:21.320Z,14.90
2022-10-10T11:36:48.728Z,14.90
2022-10-10T11:39:24.472Z,15.00
2022-10-10T11:41:55.605Z,15.00
2022-10-10T11:44:28.804Z,15.10
2022-10-10T11:47:13.354Z,15.20
2022-10-10T11:49:55.692Z,15.30
2022-10-10T11:52:34.413Z,15.30
2022-10-10T11:55:10.511Z,15.40
2022-10-10T11:57:41.077Z,15.50
2022-10-10T12:00:13.703Z,15.50
2022-10-10T12:02:41.181Z,15.60
2022-10-10T12:05:19.463Z,15.70
2022-10-10T12:08:02.111Z,15.80
2022-10-10T12:10:32.570Z,15.90
2022-10-10T12:13:04.560Z,16.00
2022-10-10T12:15:41.303Z,16.10
2022-10-10T12:18:23.165Z,16.10
2022-10-10T12:20:49.836Z,16.20
2022-10-10T12:23:32.787Z,16.30
2022-10-10T12:25:59.617Z,16.30
2022-10-10T12:28:29.318Z,16.30
2022-10-10T12:30:58.523Z,16.40
2022-10-10T12:33:45.446Z,16.40
2022-10-10T12:36:35.119Z,16.40
2022-10-10T12:39:01.873Z,16.50
2022-10-10T12:41:47.629Z,16.60
2022-10-10T12:44:33.048Z,16.60
2022-10-10T12:47:14.855Z,16.70
2022-10-10T12:50:10.620Z,16.70
2022-10-10T12:52:54.616Z,16.80
2022-10-10T12:55:23.385Z,16.90
2022-10-10T12:57:51.345Z,16.90
2022-10-10T13:00:22.175Z,17.00
2022-10-10T13:02:58.817Z,17.00
2022-10-10T13:05:26.913Z,17.10
2022-10-10T13:07:54.858Z,17.10
2022-10-10T13:10:23.757Z,17.10
2022-10-10T13:13:07.048Z,17.20
2022-10-10T13:15:34.296Z,17.20
2022-10-10T13:18:00.895Z,17.30
2022-10-10T13:20:39.783Z,17.30
2022-10-10T13:23:08.089Z,17.30
2022-10-10T13:25:37.231Z,17.40
2022-10-10T13:28:06.511Z,17.50
2022-10-10T13:30:33.097Z,17.50
2022-10-10T13:32:59.735Z,17.50
2022-10-10T13:35:27.221Z,17.50
2022-10-10T13:38:00.610Z,17.50
2022-10-10T13:40:27.418Z,17.50
2022-10-10T13:42:54.338Z,17.50
2022-10-10T13:45:30.275Z,17.60
2022-10-10T13:47:57.194Z,17.60
2022-10-10T13:50:29.509Z,17.70
2022-10-10T13:53:14.928Z,17.70
2022-10-10T13:55:41.629Z,17.80
2022-10-10T13:58:09.693Z,17.80
2022-10-10T14:00:37.319Z,17.80
2022-10-10T14:03:18.261Z,17.90
2022-10-10T14:05:45.533Z,18.00
2022-10-10T14:08:19.891Z,18.00
2022-10-10T14:10:57.743Z,17.90
2022-10-10T14:13:27.296Z,18.00
2022-10-10T14:15:54.471Z,18.00
2022-10-10T14:18:22.535Z,18.00
2022-10-10T14:20:49.689Z,18.10
2022-10-10T14:23:16.269Z,18.10
2022-10-10T14:25:44.791Z,18.10
2022-10-10T14:28:30.525Z,18.10
2022-10-10T14:30:57.099Z,18.10
2022-10-10T14:33:24.997Z,18.10
2022-10-10T14:35:52.573Z,18.10
2022-10-10T14:38:19.458Z,18.10
2022-10-10T14:40:50.055Z,18.20
2022-10-10T14:43:17.197Z,18.20
2022-10-10T14:45:44.538Z,18.20
2022-10-10T14:48:11.777Z,18.30
2022-10-10T14:50:40.715Z,18.40
2022-10-10T14:53:07.227Z,18.30
2022-10-10T14:55:33.766Z,18.40
2022-10-10T14:58:00.297Z,18.30
2022-10-10T15:00:27.762Z,18.20
2022-10-10T15:02:54.661Z,18.20
2022-10-10T15:05:23.889Z,18.20
2022-10-10T15:07:53.536Z,18.20
2022-10-10T15:10:33.195Z,18.20
2022-10-10T15:13:00.837Z,18.10
2022-10-10T15:15:29.907Z,18.10
2022-10-10T15:17:57.055Z,18.10
2022-10-10T15:20:30.384Z,18.10
2022-10-10T15:22:59.970Z,18.10
2022-10-10T15:25:32.349Z,18.10
2022-10-10T15:28:00.424Z,18.00
2022-10-10T15:30:26.981Z,18.00
2022-10-10T15:32:53.511Z,18.00
2022-10-10T15:35:21.384Z,18.00
2022-10-10T15:37:48.161Z,17.90
2022-10-10T15:40:16.398Z,17.80
2022-10-10T15:42:42.976Z,17.90
2022-10-10T15:45:09.728Z,17.90
2022-10-10T15:47:39.370Z,17.90
2022-10-10T15:50:09.298Z,17.80
2022-10-10T15:52:36.264Z,17.80
2022-10-10T15:55:03.079Z,17.80
2022-10-10T15:57:29.662Z,17.80
2022-10-10T15:59:56.282Z,17.80
2022-10-10T16:02:25.005Z,17.70
2022-10-10T16:04:51.510Z,17.70
2022-10-10T16:07:28.294Z,17.70
2022-10-10T16:09:56.268Z,17.60
2022-10-10T16:12:22.821Z,17.60
2022-10-10T16:14:49.388Z,17.60
2022-10-10T16:17:22.896Z,17.60
2022-10-10T16:19:50.175Z,17.60
2022-10-10T16:22:16.711Z,17.50
2022-10-10T16:24:58.448Z,17.50
2022-10-10T16:27:32.206Z,17.50
2022-10-10T16:29:58.746Z,17.40
2022-10-10T16:32:25.333Z,17.40
2022-10-10T16:34:51.982Z,17.40
2022-10-10T16:37:18.547Z,17.30
2022-10-10T16:39:45.086Z,17.20
2022-10-10T16:42:11.705Z,17.20
2022-10-10T16:44:38.280Z,17.10
2022-10-10T16:47:04.856Z,17.10
2022-10-10T16:49:32.349Z,17.10
2022-10-10T16:51:58.999Z,17.00
2022-10-10T16:54:25.622Z,17.00
2022-10-10T16:56:52.195Z,16.90
2022-10-10T16:59:18.748Z,16.80
2022-10-10T17:01:45.335Z,16.80
2022-10-10T17:04:11.944Z,16.70
2022-10-10T17:06:41.037Z,16.70
2022-10-10T17:09:08.407Z,16.70
2022-10-10T17:11:35.021Z,16.60
2022-10-10T17:14:01.572Z,16.60
2022-10-10T17:19:15.663Z,16.70
2022-10-10T17:21:42.178Z,16.60
2022-10-10T17:24:11.210Z,16.50
2022-10-10T17:26:39.933Z,16.50
2022-10-10T17:29:06.826Z,16.50
2022-10-10T17:31:36.139Z,16.50
2022-10-10T17:34:02.739Z,16.50
2022-10-10T17:36:29.319Z,16.40
2022-10-10T17:38:56.192Z,16.40
2022-10-10T17:41:25.251Z,16.40
2022-10-10T17:43:51.791Z,16.40
2022-10-10T17:46:36.790Z,16.30
2022-10-10T17:49:05.072Z,16.30
2022-10-10T17:51:34.318Z,16.30
2022-10-10T17:54:02.041Z,16.30
2022-10-10T17:56:28.733Z,16.20
2022-10-10T17:58:55.604Z,16.20
2022-10-10T18:01:22.268Z,16.20
2022-10-10T18:03:49.078Z,16.10
2022-10-10T18:06:20.385Z,16.10
2022-10-10T18:08:50.428Z,16.10
2022-10-10T18:11:21.213Z,16.10
2022-10-10T18:13:50.267Z,16.00
2022-10-10T18:16:20.803Z,16.00
2022-10-10T18:18:51.081Z,16.00
2022-10-10T18:21:21.822Z,16.00
2022-10-10T18:23:51.074Z,16.00
2022-10-10T18:26:19.576Z,16.00
2022-10-10T18:28:48.265Z,16.00
2022-10-10T18:31:15.243Z,16.00
2022-10-10T18:33:42.009Z,16.00
2022-10-10T18:36:09.038Z,15.90
2022-10-10T18:38:35.747Z,16.00
2022-10-10T18:41:06.422Z,16.00
2022-10-10T18:43:33.205Z,15.90
2022-10-10T18:46:05.885Z,15.90
2022-10-10T18:48:32.806Z,15.90
2022-10-10T18:51:00.577Z,15.90
2022-10-10T18:53:29.614Z,15.80
2022-10-10T18:56:00.502Z,15.90
2022-10-10T18:58:27.574Z,15.80
2022-10-10T19:01:01.385Z,15.80
2022-10-10T19:03:30.534Z,15.80
2022-10-10T19:05:57.090Z,15.80
2022-10-10T19:08:26.796Z,15.80
2022-10-10T19:10:55.499Z,15.70
2022-10-10T19:13:24.427Z,15.60
2022-10-10T19:15:52.177Z,15.70
2022-10-10T19:18:19.099Z,15.60
2022-10-10T19:20:45.846Z,15.60
2022-10-10T19:23:14.804Z,15.60
2022-10-10T19:25:42.249Z,15.60
2022-10-10T19:28:09.320Z,15.60
2022-10-10T19:30:39.520Z,15.50
2022-10-10T19:33:06.152Z,15.50
2022-10-10T19:35:39.383Z,15.50
2022-10-10T19:38:06.634Z,15.50
2022-10-10T19:40:33.855Z,15.60
2022-10-10T19:43:00.452Z,15.50
2022-10-10T19:45:27.046Z,15.50
2022-10-10T19:47:54.187Z,15.50
2022-10-10T19:50:20.739Z,15.50
2022-10-10T19:52:47.330Z,15.50
2022-10-10T19:55:13.945Z,15.50
2022-10-10T19:57:42.706Z,15.50
2022-10-10T20:00:11.895Z,15.40
2022-10-10T20:02:38.453Z,15.40
2022-10-10T20:05:05.150Z,15.40
2022-10-10T20:07:31.833Z,15.40
2022-10-10T20:09:58.395Z,15.40
2022-10-10T20:12:25.027Z,15.40
2022-10-10T20:14:51.757Z,15.40
2022-10-10T20:17:18.636Z,15.40
2022-10-10T20:19:45.207Z,15.30
2022-10-10T20:22:11.854Z,15.30
2022-10-10T20:24:38.415Z,15.30
2022-10-10T20:27:04.993Z,15.30
2022-10-10T20:29:31.539Z,15.30
2022-10-10T20:31:58.068Z,15.30
2022-10-10T20:34:24.639Z,15.30
2022-10-10T20:36:51.513Z,15.20
2022-10-10T20:39:18.074Z,15.30
2022-10-10T20:41:44.617Z,15.20
2022-10-10T20:44:12.573Z,15.20
2022-10-10T20:46:40.057Z,15.10
2022-10-10T20:49:08.522Z,15.10
2022-10-10T20:51:35.087Z,15.10
2022-10-10T20:54:02.976Z,15.00
2022-10-10T20:56:30.022Z,15.10
2022-10-10T20:58:56.764Z,15.00
2022-10-10T21:01:27.452Z,15.00
2022-10-10T21:03:54.085Z,15.00
2022-10-10T21:06:24.846Z,14.90
2022-10-10T21:08:54.787Z,14.90
2022-10-10T21:11:22.309Z,14.90
2022-10-10T21:13:56.035Z,14.80
2022-10-10T21:16:24.403Z,14.80
2022-10-10T21:18:57.964Z,14.80
2022-10-10T21:21:29.326Z,14.70
2022-10-10T21:23:56.658Z,14.70
2022-10-10T21:26:24.365Z,14.70
2022-10-10T21:28:53.402Z,14.70
2022-10-10T21:31:21.497Z,14.70
2022-10-10T21:33:50.801Z,14.60
2022-10-10T21:36:18.432Z,14.60
2022-10-10T21:38:47.158Z,14.50
2022-10-10T21:41:19.333Z,14.50
2022-10-10T21:43:49.222Z,14.50
2022-10-10T21:46:17.145Z,14.40
2022-10-10T21:48:46.162Z,14.40
2022-10-10T21:51:13.310Z,14.30
2022-10-10T21:53:39.855Z,14.30
2022-10-10T21:56:07.894Z,14.30
2022-10-10T21:58:38.278Z,14.20
2022-10-10T22:01:07.883Z,14.20
2022-10-10T22:03:36.860Z,14.20
2022-10-10T22:06:08.860Z,14.10
2022-10-10T22:08:35.972Z,14.10
2022-10-10T22:11:03.669Z,14.00
2022-10-10T22:13:33.076Z,14.00
2022-10-10T22:16:02.384Z,14.00
2022-10-10T22:18:30.100Z,13.90
2022-10-10T22:20:59.356Z,13.90
2022-10-10T22:23:26.335Z,13.90
2022-10-10T22:25:52.858Z,13.90
2022-10-10T22:28:19.484Z,13.90
2022-10-10T22:30:46.310Z,13.90
2022-10-10T22:33:15.351Z,14.00
2022-10-10T22:35:41.856Z,14.10
2022-10-10T22:38:08.415Z,14.10
2022-10-10T22:40:34.999Z,14.20
2022-10-10T22:43:01.887Z,14.20
2022-10-10T22:45:29.246Z,14.20
2022-10-10T22:47:55.945Z,14.20
2022-10-10T22:50:22.527Z,14.20
2022-10-10T22:52:51.539Z,14.30
2022-10-10T22:55:18.925Z,14.30
2022-10-10T22:57:48.178Z,14.30
2022-10-10T23:00:15.026Z,14.30
2022-10-10T23:02:41.577Z,14.30
2022-10-10T23:05:08.368Z,14.30
2022-10-10T23:07:35.270Z,14.30
2022-10-10T23:10:01.785Z,14.30
2022-10-10T23:12:30.903Z,14.30
2022-10-10T23:14:57.642Z,14.20
2022-10-10T23:17:24.282Z,14.20
2022-10-10T23:19:50.786Z,14.10
2022-10-10T23:22:17.368Z,14.10
2022-10-10T23:24:44.098Z,14.00
2022-10-10T23:27:10.612Z,14.00
2022-10-10T23:29:39.583Z,14.00
2022-10-10T23:32:06.114Z,13.90
2022-10-10T23:34:35.120Z,13.80
2022-10-10T23:37:01.650Z,13.80
2022-10-10T23:39:30.871Z,13.80
2022-10-10T23:41:59.687Z,13.70
2022-10-10T23:44:26.220Z,13.60
2022-10-10T23:46:52.845Z,13.60
2022-10-10T23:49:21.788Z,13.60
2022-10-10T23:51:48.320Z,13.60
2022-10-10T23:54:15.040Z,13.50
2022-10-10T23:56:41.588Z,13.50
2022-10-10T23:59:08.154Z,13.50
